Time;durP1;ratioP1;P1;durP2;ratioP2;P2;SDS_P1;SDS_P2;PMS_P1;PMS_P2;Temp;Humidity;BMP_temperature;BMP_pressure;BME280_temperature;BME280_humidity;BME280_pressure;Samples;Min_cycle;Max_cycle;Signal;HPM_P1;HPM_P2
2023/01/20 00:01:25;;;;;;;;;;;;;;;;;;8412000;27;29423;-80
2023/01/20 00:05:25;;;;;;;;;;;;;;;;;;8419354;27;28771;-78
2023/01/20 00:09:25;;;;;;;;;;;;;;;;;;8435488;27;27317;-79
2023/01/20 00:13:25;;;;;;;;;;;;;;;;;;8412177;27;28854;-79
2023/01/20 00:17:25;;;;;;;;;;;;;;;;;;8427644;27;27487;-78
2023/01/20 00:21:25;;;;;;;;;;;;;;;;;;8427802;27;27571;-79
2023/01/20 00:25:25;;;;;;;;;;;;;;;;;;8409526;27;28543;-79
2023/01/20 00:29:25;;;;;;;;;;;;;;;;;;8431336;27;28395;-79
2023/01/20 00:33:25;;;;;;;;;;;;;;;;;;8420572;27;27620;-79
2023/01/20 00:37:26;;;;;;;;;;;;;;;;;;8397438;27;29675;-78
2023/01/20 00:41:26;;;;;;;;;;;;;;;;;;8414236;27;28444;-79
2023/01/20 00:45:26;;;;;;;;;;;;;;;;;;8428171;27;27358;-79
2023/01/20 00:49:26;;;;;;;;;;;;;;;;;;8427166;27;28097;-79
2023/01/20 00:53:26;;;;;;;;;;;;;;;;;;8410437;27;28248;-78
2023/01/20 00:57:26;;;;;;;;;;;;;;;;;;8402737;27;28557;-78
2023/01/20 01:01:26;;;;;;;;;;;;;;;;;;8425935;27;27570;-79
2023/01/20 01:05:26;;;;;;;;;;;;;;;;;;8426933;27;28212;-79
2023/01/20 01:09:26;;;;;;;;;;;;;;;;;;8438633;27;27327;-78
2023/01/20 01:13:26;;;;;;;;;;;;;;;;;;8432922;27;28964;-79
2023/01/20 01:17:26;;;;;;;;;;;;;;;;;;8407967;27;28711;-79
2023/01/20 01:21:26;;;;;;;;;;;;;;;;;;8408441;27;28573;-79
2023/01/20 01:25:26;;;;;;;;;;;;;;;;;;8430203;27;27411;-79
2023/01/20 01:29:27;;;;;;;;;;;;;;;;;;8431372;27;27420;-79
2023/01/20 01:33:27;;;;;;;;;;;;;;;;;;8428012;27;28172;-80
2023/01/20 01:37:27;;;;;;;;;;;;;;;;;;8409003;27;28743;-79
2023/01/20 01:41:27;;;;;;;;;;;;;;;;;;8415105;27;28953;-79
2023/01/20 01:45:27;;;;;;;;;;;;;;;;;;8432534;27;27256;-80
2023/01/20 01:49:27;;;;;;;;;;;;;;;;;;8436887;27;27426;-79
2023/01/20 01:53:27;;;;;;;;;;;;;;;;;;8433881;27;27969;-79
2023/01/20 01:57:27;;;;;;;;;;;;;;;;;;8431827;27;27378;-78
2023/01/20 02:01:27;;;;;;;;;;;;;;;;;;8408878;27;28817;-78
2023/01/20 02:05:27;;;;;;;;;;;;;;;;;;8414213;27;28822;-78
2023/01/20 02:09:27;;;;;;;;;;;;;;;;;;8415238;27;28144;-78
2023/01/20 02:13:28;;;;;;;;;;;;;;;;;;8413252;27;28500;-79
2023/01/20 02:17:28;;;;;;;;;;;;;;;;;;8432192;27;27197;-79
2023/01/20 02:21:28;;;;;;;;;;;;;;;;;;8433484;27;27533;-79
2023/01/20 02:25:28;;;;;;;;;;;;;;;;;;8430957;27;28551;-79
2023/01/20 02:29:28;;;;;;;;;;;;;;;;;;8407249;27;28467;-79
2023/01/20 02:33:28;;;;;;;;;;;;;;;;;;8436697;27;28803;-79
2023/01/20 02:37:29;;;;;;;;;;;;;;;;;;8424438;27;27405;-79
2023/01/20 02:41:29;;;;;;;;;;;;;;;;;;8407111;27;28789;-79
2023/01/20 02:45:29;;;;;;;;;;;;;;;;;;8407689;27;28466;-79
2023/01/20 02:49:29;;;;;;;;;;;;;;;;;;8436546;27;27123;-79
2023/01/20 02:53:29;;;;;;;;;;;;;;;;;;8412626;27;29288;-79
2023/01/20 02:57:29;;;;;;;;;;;;;;;;;;8426948;27;29748;-78
2023/01/20 03:01:30;;;;;;;;;;;;;;;;;;8409764;27;29490;-78
2023/01/20 03:05:30;;;;;;;;;;;;;;;;;;8428779;27;27946;-79
2023/01/20 03:09:30;;;;;;;;;;;;;;;;;;8428212;27;27206;-79
2023/01/20 03:13:30;;;;;;;;;;;;;;;;;;8412693;27;28417;-79
2023/01/20 03:17:30;;;;;;;;;;;;;;;;;;8425784;27;27153;-79
2023/01/20 03:21:30;;;;;;;;;;;;;;;;;;8431496;27;27145;-79
2023/01/20 03:25:30;;;;;;;;;;;;;;;;;;8412456;27;28641;-79
2023/01/20 03:29:31;;;;;;;;;;;;;;;;;;8415209;27;28629;-79
2023/01/20 03:33:31;;;;;;;;;;;;;;;;;;8415301;27;28175;-79
2023/01/20 03:37:31;;;;;;;;;;;;;;;;;;8403212;27;28592;-78
2023/01/20 03:41:31;;;;;;;;;;;;;;;;;;8431845;27;28675;-79
2023/01/20 03:45:31;;;;;;;;;;;;;;;;;;8436781;27;28303;-79
2023/01/20 03:49:31;;;;;;;;;;;;;;;;;;8418926;27;27534;-79
2023/01/20 03:53:54;;;;;;;;;;;;;;;;;;8459751;27;27956;-81
2023/01/20 03:57:54;;;;;;;;;;;;;;;;;;8440547;27;27099;-79
2023/01/20 04:01:54;;;;;;;;;;;;;;;;;;8444937;27;29059;-79
2023/01/20 04:05:54;;;;;;;;;;;;;;;;;;8445070;27;28736;-80
2023/01/20 04:10:06;;;;;;;;;;;;;;;;;;8436299;27;28419;-80
2023/01/20 04:14:06;;;;;;;;;;;;;;;;;;8448604;27;27436;-80
2023/01/20 04:18:06;;;;;;;;;;;;;;;;;;8439150;27;28902;-79
2023/01/20 04:22:06;;;;;;;;;;;;;;;;;;8440501;27;27218;-79
2023/01/20 04:26:06;;;;;;;;;;;;;;;;;;8440405;27;28521;-77
2023/01/20 04:30:07;;;;;;;;;;;;;;;;;;8438395;27;28424;-79
2023/01/20 04:34:07;;;;;;;;;;;;;;;;;;8434475;27;27331;-80
2023/01/20 04:38:07;;;;;;;;;;;;;;;;;;8435310;27;28957;-80
2023/01/20 04:42:07;;;;;;;;;;;;;;;;;;8440425;27;28595;-79
2023/01/20 04:46:07;;;;;;;;;;;;;;;;;;8436084;27;28446;-80
2023/01/20 04:50:07;;;;;;;;;;;;;;;;;;8442374;27;28453;-80
2023/01/20 04:54:07;;;;;;;;;;;;;;;;;;8435101;27;29074;-79
2023/01/20 04:58:13;;;;;;;;;;;;;;;;;;8434916;27;27264;-79
2023/01/20 05:02:13;;;;;;;;;;;;;;;;;;8430946;27;27528;-79
2023/01/20 05:06:14;;;;;;;;;;;;;;;;;;8414133;27;27539;-80
2023/01/20 05:10:14;;;;;;;;;;;;;;;;;;8416437;27;27850;-80
2023/01/20 05:14:14;;;;;;;;;;;;;;;;;;8419029;27;29022;-79
2023/01/20 05:18:14;;;;;;;;;;;;;;;;;;8415006;27;28685;-79
2023/01/20 05:22:14;;;;;;;;;;;;;;;;;;8414081;27;27163;-80
2023/01/20 05:26:14;;;;;;;;;;;;;;;;;;8417313;27;28281;-80
2023/01/20 05:30:14;;;;;;;;;;;;;;;;;;8414470;27;28711;-80
2023/01/20 05:34:15;;;;;;;;;;;;;;;;;;8413559;27;29540;-78
2023/01/20 05:38:15;;;;;;;;;;;;;;;;;;8416112;27;28182;-79
2023/01/20 05:42:15;;;;;;;;;;;;;;;;;;8416340;27;27412;-80
2023/01/20 05:46:15;;;;;;;;;;;;;;;;;;8423737;27;28534;-80
2023/01/20 05:50:15;;;;;;;;;;;;;;;;;;8427127;27;28527;-80
2023/01/20 05:54:15;;;;;;;;;;;;;;;;;;8422702;27;27556;-80
2023/01/20 05:58:15;;;;;;;;;;;;;;;;;;8421170;27;28807;-79
2023/01/20 06:02:17;;;;;;;;;;;;;;;;;;8416528;27;27369;-79
2023/01/20 06:06:17;;;;;;;;;;;;;;;;;;8419153;27;27834;-80
2023/01/20 06:10:17;;;;;;;;;;;;;;;;;;8411892;27;29761;-80
2023/01/20 06:14:17;;;;;;;;;;;;;;;;;;8427060;27;28588;-81
2023/01/20 06:18:18;;;;;;;;;;;;;;;;;;8416039;27;28644;-79
2023/01/20 06:22:19;;;;;;;;;;;;;;;;;;8411063;27;27267;-80
2023/01/20 06:26:19;;;;;;;;;;;;;;;;;;8421963;27;28863;-80
2023/01/20 06:30:20;;;;;;;;;;;;;;;;;;8417856;27;29039;-80
2023/01/20 06:34:20;;;;;;;;;;;;;;;;;;8417388;27;28524;-79
2023/01/20 06:38:20;;;;;;;;;;;;;;;;;;8414760;27;28465;-80
2023/01/20 06:42:20;;;;;;;;;;;;;;;;;;8409962;27;27304;-80
2023/01/20 06:46:21;;;;;;;;;;;;;;;;;;8408980;27;27417;-80
2023/01/20 06:50:21;;;;;;;;;;;;;;;;;;8414085;27;27653;-79
2023/01/20 06:54:21;;;;;;;;;;;;;;;;;;8416066;27;29802;-79
2023/01/20 06:58:21;;;;;;;;;;;;;;;;;;8410601;27;27444;-80
2023/01/20 07:02:21;;;;;;;;;;;;;;;;;;8412726;27;28055;-80
2023/01/20 07:06:21;;;;;;;;;;;;;;;;;;8412246;27;27209;-80
2023/01/20 07:10:21;;;;;;;;;;;;;;;;;;8414569;27;27306;-79
2023/01/20 07:14:21;;;;;;;;;;;;;;;;;;8415068;27;28849;-79
2023/01/20 07:18:21;;;;;;;;;;;;;;;;;;8411784;27;28262;-80
2023/01/20 07:22:21;;;;;;;;;;;;;;;;;;8417185;27;27483;-79
2023/01/20 07:26:22;;;;;;;;;;;;;;;;;;8411496;27;27268;-79
2023/01/20 07:30:22;;;;;;;;;;;;;;;;;;8415231;27;28618;-79
2023/01/20 07:34:22;;;;;;;;;;;;;;;;;;8411313;27;27336;-79
2023/01/20 07:38:22;;;;;;;;;;;;;;;;;;8413258;27;29054;-80
2023/01/20 07:42:22;;;;;;;;;;;;;;;;;;8414448;27;28168;-79
2023/01/20 07:46:22;;;;;;;;;;;;;;;;;;8419319;27;27592;-81
2023/01/20 07:50:23;;;;;;;;;;;;;;;;;;8411058;27;28534;-79
2023/01/20 07:54:23;;;;;;;;;;;;;;;;;;8415930;27;27058;-79
2023/01/20 07:58:23;;;;;;;;;;;;;;;;;;8415844;27;28368;-80
2023/01/20 08:02:23;;;;;;;;;;;;;;;;;;8408180;27;28647;-79
2023/01/20 08:06:23;;;;;;;;;;;;;;;;;;8414000;27;27968;-79
2023/01/20 08:10:23;;;;;;;;;;;;;;;;;;8406542;27;27369;-79
2023/01/20 08:14:23;;;;;;;;;;;;;;;;;;8408451;27;28500;-79
2023/01/20 08:18:23;;;;;;;;;;;;;;;;;;8410352;27;28824;-79
2023/01/20 08:22:24;;;;;;;;;;;;;;;;;;8408817;27;28533;-79
2023/01/20 08:26:24;;;;;;;;;;;;;;;;;;8410198;27;28021;-80
2023/01/20 08:30:24;;;;;;;;;;;;;;;;;;8414669;27;27315;-79
2023/01/20 08:34:24;;;;;;;;;;;;;;;;;;8412671;27;28439;-79
2023/01/20 08:38:24;;;;;;;;;;;;;;;;;;8412086;27;28550;-81
2023/01/20 08:42:24;;;;;;;;;;;;;;;;;;8425517;27;28611;-79
2023/01/20 08:46:25;;;;;;;;;;;;;;;;;;8416634;27;27435;-79
2023/01/20 08:50:25;;;;;;;;;;;;;;;;;;8416060;27;28170;-79
2023/01/20 08:54:25;;;;;;;;;;;;;;;;;;8417406;27;29154;-78
2023/01/20 08:58:25;;;;;;;;;;;;;;;;;;8424289;27;28448;-78
2023/01/20 09:02:25;;;;;;;;;;;;;;;;;;8420547;27;27144;-79
2023/01/20 09:06:26;;;;;;;;;;;;;;;;;;8426287;27;27070;-79
2023/01/20 09:10:26;;;;;;;;;;;;;;;;;;8422250;27;27462;-78
2023/01/20 09:14:26;;;;;;;;;;;;;;;;;;8417220;27;27308;-79
2023/01/20 09:18:26;;;;;;;;;;;;;;;;;;8428166;27;30146;-78
2023/01/20 09:22:26;;;;;;;;;;;;;;;;;;8423136;27;29077;-79
2023/01/20 09:26:26;;;;;;;;;;;;;;;;;;8419083;27;29643;-79
2023/01/20 09:30:26;;;;;;;;;;;;;;;;;;8420510;27;27325;-78
2023/01/20 09:34:26;;;;;;;;;;;;;;;;;;8421390;27;28886;-78
2023/01/20 09:47:19;;;;;;;;;;;;;;;;;;8421309;27;27239;-78
2023/01/20 09:55:39;;;;;;;;;;;;;;;;;;8421419;27;27125;-79
2023/01/20 09:59:40;;;;;;;;;;;;;;;;;;8425442;27;29809;-80
2023/01/20 10:03:40;;;;;;;;;;;;;;;;;;8433713;27;28592;-79
2023/01/20 10:07:40;;;;;;;;;;;;;;;;;;8423157;27;28465;-79
2023/01/20 10:11:40;;;;;;;;;;;;;;;;;;8415245;27;27410;-80
2023/01/20 10:15:40;;;;;;;;;;;;;;;;;;8417510;27;27423;-82
2023/01/20 10:19:41;;;;;;;;;;;;;;;;;;8417066;27;29058;-80
2023/01/20 10:23:41;;;;;;;;;;;;;;;;;;8419874;27;27170;-80
2023/01/20 10:27:41;;;;;;;;;;;;;;;;;;8419878;27;27340;-81
2023/01/20 10:31:41;;;;;;;;;;;;;;;;;;8416709;27;27513;-79
2023/01/20 10:35:42;;;;;;;;;;;;;;;;;;8413747;27;27305;-78
2023/01/20 10:39:42;;;;;;;;;;;;;;;;;;8424937;27;27191;-78
2023/01/20 10:43:42;;;;;;;;;;;;;;;;;;8418242;27;27197;-79
2023/01/20 10:47:42;;;;;;;;;;;;;;;;;;8416484;27;27413;-80
2023/01/20 10:51:42;;;;;;;;;;;;;;;;;;8420276;27;28096;-80
2023/01/20 10:55:42;;;;;;;;;;;;;;;;;;8414113;27;28763;-79
2023/01/20 10:59:42;;;;;;;;;;;;;;;;;;8418698;27;29107;-79
2023/01/20 11:03:42;;;;;;;;;;;;;;;;;;8418155;27;27246;-79
2023/01/20 11:07:42;;;;;;;;;;;;;;;;;;8422645;27;29435;-80
2023/01/20 11:11:43;;;;;;;;;;;;;;;;;;8424896;27;28427;-80
2023/01/20 11:15:43;;;;;;;;;;;;;;;;;;8411556;27;27187;-79
2023/01/20 11:19:43;;;;;;;;;;;;;;;;;;8424289;27;27266;-80
2023/01/20 11:23:43;;;;;;;;;;;;;;;;;;8430847;27;28832;-78
2023/01/20 11:27:44;;;;;;;;;;;;;;;;;;8419162;27;28475;-79
2023/01/20 11:31:44;;;;;;;;;;;;;;;;;;8411081;27;28147;-81
2023/01/20 11:35:44;;;;;;;;;;;;;;;;;;8416474;27;28531;-81
2023/01/20 11:39:44;;;;;;;;;;;;;;;;;;8430076;27;27283;-80
2023/01/20 11:43:44;;;;;;;;;;;;;;;;;;8438770;27;28430;-79
2023/01/20 11:47:44;;;;;;;;;;;;;;;;;;8441889;27;27124;-79
2023/01/20 11:51:44;;;;;;;;;;;;;;;;;;8423486;27;27066;-78
2023/01/20 11:55:44;;;;;;;;;;;;;;;;;;8435576;27;27920;-77
2023/01/20 11:59:44;;;;;;;;;;;;;;;;;;8426484;27;28561;-79
2023/01/20 12:03:44;;;;;;;;;;;;;;;;;;8434978;27;27133;-78
2023/01/20 12:07:44;;;;;;;;;;;;;;;;;;8431037;27;28781;-78
2023/01/20 12:11:44;;;;;;;;;;;;;;;;;;8421842;27;28450;-79
2023/01/20 12:15:44;;;;;;;;;;;;;;;;;;8430413;27;28416;-80
2023/01/20 12:19:45;;;;;;;;;;;;;;;;;;8443156;27;27216;-78
2023/01/20 12:23:45;;;;;;;;;;;;;;;;;;8442904;27;27065;-79
2023/01/20 12:27:45;;;;;;;;;;;;;;;;;;8445134;27;28862;-80
2023/01/20 12:31:47;;;;;;;;;;;;;;;;;;8435453;27;27671;-80
2023/01/20 12:35:47;;;;;;;;;;;;;;;;;;8441359;27;28565;-79
2023/01/20 12:39:47;;;;;;;;;;;;;;;;;;8441643;27;28152;-78
2023/01/20 12:43:48;;;;;;;;;;;;;;;;;;8434880;27;29992;-78
2023/01/20 12:47:48;;;;;;;;;;;;;;;;;;8437143;27;28905;-79
2023/01/20 12:51:48;;;;;;;;;;;;;;;;;;8444676;27;27106;-79
2023/01/20 12:55:48;;;;;;;;;;;;;;;;;;8435304;27;28539;-79
2023/01/20 12:59:48;;;;;;;;;;;;;;;;;;8426448;27;27171;-80
2023/01/20 13:03:48;;;;;;;;;;;;;;;;;;8421828;27;30087;-80
2023/01/20 13:07:49;;;;;;;;;;;;;;;;;;8425917;27;28399;-80
2023/01/20 13:11:49;;;;;;;;;;;;;;;;;;8433994;27;28827;-80
2023/01/20 13:15:49;;;;;;;;;;;;;;;;;;8416791;27;27326;-79
2023/01/20 13:19:49;;;;;;;;;;;;;;;;;;8435406;27;27227;-80
2023/01/20 13:23:49;;;;;;;;;;;;;;;;;;8420370;27;27351;-79
2023/01/20 13:27:50;;;;;;;;;;;;;;;;;;8420090;27;27401;-79
2023/01/20 13:31:50;;;;;;;;;;;;;;;;;;8429079;27;28070;-78
2023/01/20 13:35:50;;;;;;;;;;;;;;;;;;8422958;27;28284;-78
2023/01/20 13:39:50;;;;;;;;;;;;;;;;;;8427782;27;28634;-78
2023/01/20 13:43:52;;;;;;;;;;;;;;;;;;8420954;27;27861;-80
2023/01/20 13:47:52;;;;;;;;;;;;;;;;;;8421376;27;27955;-79
2023/01/20 13:51:52;;;;;;;;;;;;;;;;;;8434524;27;28813;-79
2023/01/20 13:55:52;;;;;;;;;;;;;;;;;;8428791;27;27353;-79
2023/01/20 13:59:52;;;;;;;;;;;;;;;;;;8433985;27;28037;-80
2023/01/20 14:03:52;;;;;;;;;;;;;;;;;;8426473;27;27331;-80
2023/01/20 14:07:52;;;;;;;;;;;;;;;;;;8417929;27;28008;-81
2023/01/20 14:11:52;;;;;;;;;;;;;;;;;;8419083;27;28973;-78
2023/01/20 14:15:52;;;;;;;;;;;;;;;;;;8404332;27;27357;-80
2023/01/20 14:19:53;;;;;;;;;;;;;;;;;;8426055;27;27352;-79
2023/01/20 14:23:53;;;;;;;;;;;;;;;;;;8432371;27;29800;-79
2023/01/20 14:27:53;;;;;;;;;;;;;;;;;;8420323;27;28536;-79
2023/01/20 14:31:53;;;;;;;;;;;;;;;;;;8413110;27;28550;-79
2023/01/20 14:35:53;;;;;;;;;;;;;;;;;;8412097;27;28510;-79
2023/01/20 14:39:55;;;;;;;;;;;;;;;;;;8406303;27;27596;-77
2023/01/20 14:43:55;;;;;;;;;;;;;;;;;;8407129;27;27441;-78
2023/01/20 14:47:55;;;;;;;;;;;;;;;;;;8411055;27;27393;-77
2023/01/20 14:51:55;;;;;;;;;;;;;;;;;;8409592;27;28517;-76
2023/01/20 14:55:55;;;;;;;;;;;;;;;;;;8409168;27;27425;-78
2023/01/20 14:59:56;;;;;;;;;;;;;;;;;;8413115;27;27197;-77
2023/01/20 15:03:56;;;;;;;;;;;;;;;;;;8411369;27;27291;-78
2023/01/20 15:07:56;;;;;;;;;;;;;;;;;;8407929;27;27476;-78
2023/01/20 15:11:56;;;;;;;;;;;;;;;;;;8405933;27;27409;-78
2023/01/20 15:15:56;;;;;;;;;;;;;;;;;;8413538;27;27083;-78
2023/01/20 15:19:56;;;;;;;;;;;;;;;;;;8411089;27;28509;-78
2023/01/20 15:23:56;;;;;;;;;;;;;;;;;;8399323;27;28566;-78
2023/01/20 15:27:56;;;;;;;;;;;;;;;;;;8409666;27;28678;-77
2023/01/20 15:31:56;;;;;;;;;;;;;;;;;;8401511;27;29821;-77
2023/01/20 15:35:56;;;;;;;;;;;;;;;;;;8409644;27;28552;-78
2023/01/20 15:39:57;;;;;;;;;;;;;;;;;;8411392;27;27647;-79
2023/01/20 15:43:57;;;;;;;;;;;;;;;;;;8409662;27;28511;-78
2023/01/20 15:47:58;;;;;;;;;;;;;;;;;;8407813;27;28284;-79
2023/01/20 15:51:58;;;;;;;;;;;;;;;;;;8413147;27;27814;-77
2023/01/20 15:55:58;;;;;;;;;;;;;;;;;;8410551;27;29492;-78
2023/01/20 15:59:58;;;;;;;;;;;;;;;;;;8409689;27;28460;-78
2023/01/20 16:03:58;;;;;;;;;;;;;;;;;;8404617;27;28327;-78
2023/01/20 16:07:58;;;;;;;;;;;;;;;;;;8409918;27;28770;-77
2023/01/20 16:11:59;;;;;;;;;;;;;;;;;;8413972;27;29543;-79
2023/01/20 16:15:59;;;;;;;;;;;;;;;;;;8404449;27;27211;-80
2023/01/20 16:19:59;;;;;;;;;;;;;;;;;;8414668;27;28538;-79
2023/01/20 16:23:59;;;;;;;;;;;;;;;;;;8407900;27;28408;-78
2023/01/20 16:27:59;;;;;;;;;;;;;;;;;;8409949;27;29843;-78
2023/01/20 16:31:59;;;;;;;;;;;;;;;;;;8417597;27;27872;-78
2023/01/20 16:35:59;;;;;;;;;;;;;;;;;;8409285;27;28705;-79
2023/01/20 16:39:59;;;;;;;;;;;;;;;;;;8407907;27;27618;-78
2023/01/20 16:43:59;;;;;;;;;;;;;;;;;;8415926;27;28955;-79
2023/01/20 16:47:59;;;;;;;;;;;;;;;;;;8415766;27;28468;-80
2023/01/20 16:51:59;;;;;;;;;;;;;;;;;;8413382;27;28816;-77
2023/01/20 16:56:00;;;;;;;;;;;;;;;;;;8413958;27;28817;-79
2023/01/20 17:00:00;;;;;;;;;;;;;;;;;;8414041;27;28462;-77
2023/01/20 17:04:00;;;;;;;;;;;;;;;;;;8416234;27;27139;-77
2023/01/20 17:08:01;;;;;;;;;;;;;;;;;;8412913;27;28007;-77
2023/01/20 17:12:01;;;;;;;;;;;;;;;;;;8413482;27;28546;-78
2023/01/20 17:16:02;;;;;;;;;;;;;;;;;;8412798;27;28920;-77
2023/01/20 17:20:02;;;;;;;;;;;;;;;;;;8412384;27;28546;-78
2023/01/20 17:24:02;;;;;;;;;;;;;;;;;;8411470;27;27832;-79
2023/01/20 17:28:02;;;;;;;;;;;;;;;;;;8418193;27;29191;-78
2023/01/20 17:32:02;;;;;;;;;;;;;;;;;;8419373;27;27951;-78
2023/01/20 17:36:02;;;;;;;;;;;;;;;;;;8415898;27;27531;-77
2023/01/20 17:40:02;;;;;;;;;;;;;;;;;;8417576;27;28344;-79
2023/01/20 17:44:02;;;;;;;;;;;;;;;;;;8414169;27;27175;-79
2023/01/20 17:48:02;;;;;;;;;;;;;;;;;;8424121;27;28545;-78
2023/01/20 17:52:03;;;;;;;;;;;;;;;;;;8412249;27;27476;-77
2023/01/20 17:56:03;;;;;;;;;;;;;;;;;;8413947;27;28523;-77
2023/01/20 18:00:04;;;;;;;;;;;;;;;;;;8416224;27;28149;-77
2023/01/20 18:04:05;;;;;;;;;;;;;;;;;;8411561;27;28752;-76
2023/01/20 18:08:05;;;;;;;;;;;;;;;;;;8417625;27;27571;-77
2023/01/20 18:12:05;;;;;;;;;;;;;;;;;;8419685;27;28457;-76
2023/01/20 18:16:05;;;;;;;;;;;;;;;;;;8409364;27;27344;-77
2023/01/20 18:20:06;;;;;;;;;;;;;;;;;;8414029;27;28377;-79
2023/01/20 18:24:06;;;;;;;;;;;;;;;;;;8414996;27;28649;-78
2023/01/20 18:28:06;;;;;;;;;;;;;;;;;;8409829;27;27248;-79
2023/01/20 18:32:06;;;;;;;;;;;;;;;;;;8412886;27;27319;-78
2023/01/20 18:36:06;;;;;;;;;;;;;;;;;;8413918;27;28190;-77
2023/01/20 18:40:06;;;;;;;;;;;;;;;;;;8410009;27;27396;-78
2023/01/20 18:44:06;;;;;;;;;;;;;;;;;;8415629;27;27412;-78
2023/01/20 18:48:08;;;;;;;;;;;;;;;;;;8411567;27;28479;-75
2023/01/20 18:52:08;;;;;;;;;;;;;;;;;;8402764;27;29691;-78
2023/01/20 18:56:08;;;;;;;;;;;;;;;;;;8400288;27;27677;-78
2023/01/20 19:00:09;;;;;;;;;;;;;;;;;;8410077;27;27272;-77
2023/01/20 19:04:09;;;;;;;;;;;;;;;;;;8413988;27;28250;-77
2023/01/20 19:08:09;;;;;;;;;;;;;;;;;;8411446;27;27615;-79
2023/01/20 19:12:09;;;;;;;;;;;;;;;;;;8410585;27;27251;-78
2023/01/20 19:16:10;;;;;;;;;;;;;;;;;;8406493;27;27841;-79
2023/01/20 19:20:10;;;;;;;;;;;;;;;;;;8407383;27;28670;-77
2023/01/20 19:24:10;;;;;;;;;;;;;;;;;;8400982;27;28921;-77
2023/01/20 19:28:12;;;;;;;;;;;;;;;;;;8415198;27;28799;-76
2023/01/20 19:32:12;;;;;;;;;;;;;;;;;;8411759;27;27209;-78
2023/01/20 19:36:12;;;;;;;;;;;;;;;;;;8404749;27;28506;-79
2023/01/20 19:40:12;;;;;;;;;;;;;;;;;;8407664;27;28945;-78
2023/01/20 19:44:12;;;;;;;;;;;;;;;;;;8405933;27;28515;-77
2023/01/20 19:48:12;;;;;;;;;;;;;;;;;;8405543;27;27477;-78
2023/01/20 19:52:12;;;;;;;;;;;;;;;;;;8414377;27;28298;-80
2023/01/20 19:56:13;;;;;;;;;;;;;;;;;;8406895;27;27399;-79
2023/01/20 20:00:13;;;;;;;;;;;;;;;;;;8402606;27;27360;-79
2023/01/20 20:04:13;;;;;;;;;;;;;;;;;;8401564;27;28829;-77
2023/01/20 20:08:13;;;;;;;;;;;;;;;;;;8405996;27;28349;-79
2023/01/20 20:12:13;;;;;;;;;;;;;;;;;;8407524;27;28200;-77
2023/01/20 20:16:13;;;;;;;;;;;;;;;;;;8417107;27;27385;-78
2023/01/20 20:20:13;;;;;;;;;;;;;;;;;;8409049;27;27160;-78
2023/01/20 20:24:13;;;;;;;;;;;;;;;;;;8411308;27;27301;-78
2023/01/20 20:28:13;;;;;;;;;;;;;;;;;;8411189;27;28244;-78
2023/01/20 20:32:15;;;;;;;;;;;;;;;;;;8412615;27;27652;-78
2023/01/20 20:36:15;;;;;;;;;;;;;;;;;;8421342;27;27732;-77
2023/01/20 20:40:15;;;;;;;;;;;;;;;;;;8410663;27;27323;-77
2023/01/20 20:44:15;;;;;;;;;;;;;;;;;;8415272;27;28005;-77
2023/01/20 20:48:15;;;;;;;;;;;;;;;;;;8411695;27;27381;-77
2023/01/20 20:52:16;;;;;;;;;;;;;;;;;;8413111;27;27381;-78
2023/01/20 20:56:16;;;;;;;;;;;;;;;;;;8418316;27;29825;-77
2023/01/20 21:00:17;;;;;;;;;;;;;;;;;;8417519;27;27552;-77
2023/01/20 21:04:17;;;;;;;;;;;;;;;;;;8416339;27;28239;-77
2023/01/20 21:08:18;;;;;;;;;;;;;;;;;;8416006;27;28473;-78
2023/01/20 21:12:18;;;;;;;;;;;;;;;;;;8411641;27;27286;-78
2023/01/20 21:16:20;;;;;;;;;;;;;;;;;;8414451;27;29638;-78
2023/01/20 21:20:20;;;;;;;;;;;;;;;;;;8417053;27;28857;-78
2023/01/20 21:24:24;;;;;;;;;;;;;;;;;;8417223;27;29255;-79
2023/01/20 21:28:25;;;;;;;;;;;;;;;;;;8413445;27;27392;-79
2023/01/20 21:32:25;;;;;;;;;;;;;;;;;;8406718;27;28829;-79
2023/01/20 21:36:25;;;;;;;;;;;;;;;;;;8415599;27;28448;-79
2023/01/20 21:40:25;;;;;;;;;;;;;;;;;;8412032;27;27759;-78
2023/01/20 21:44:28;;;;;;;;;;;;;;;;;;8410943;27;27308;-78
2023/01/20 21:52:48;;;;;;;;;;;;;;;;;;8412427;27;27292;-79
2023/01/20 21:56:48;;;;;;;;;;;;;;;;;;8408611;27;28489;-78
2023/01/20 22:00:48;;;;;;;;;;;;;;;;;;8403481;27;27161;-81
2023/01/20 22:04:48;;;;;;;;;;;;;;;;;;8402073;27;28549;-78
2023/01/20 22:08:48;;;;;;;;;;;;;;;;;;8403209;27;27319;-79
2023/01/20 22:12:48;;;;;;;;;;;;;;;;;;8400516;27;28708;-79
2023/01/20 22:16:49;;;;;;;;;;;;;;;;;;8411551;27;28481;-80
2023/01/20 22:20:49;;;;;;;;;;;;;;;;;;8414989;27;28742;-78
2023/01/20 22:24:49;;;;;;;;;;;;;;;;;;8415659;27;27477;-80
2023/01/20 22:28:49;;;;;;;;;;;;;;;;;;8410499;27;27694;-78
2023/01/20 22:32:49;;;;;;;;;;;;;;;;;;8407604;27;27344;-79
2023/01/20 22:36:49;;;;;;;;;;;;;;;;;;8410812;27;28579;-78
2023/01/20 22:40:49;;;;;;;;;;;;;;;;;;8408772;27;28511;-78
2023/01/20 22:44:49;;;;;;;;;;;;;;;;;;8413724;27;28208;-79
2023/01/20 22:48:49;;;;;;;;;;;;;;;;;;8410918;27;27441;-78
2023/01/20 22:52:50;;;;;;;;;;;;;;;;;;8410957;27;27324;-81
2023/01/20 22:56:50;;;;;;;;;;;;;;;;;;8411410;27;28315;-78
2023/01/20 23:00:50;;;;;;;;;;;;;;;;;;8407258;27;28427;-78
2023/01/20 23:04:51;;;;;;;;;;;;;;;;;;8412962;27;28616;-77
2023/01/20 23:08:51;;;;;;;;;;;;;;;;;;8410116;27;28339;-80
2023/01/20 23:12:51;;;;;;;;;;;;;;;;;;8411045;27;27386;-78
2023/01/20 23:16:51;;;;;;;;;;;;;;;;;;8403984;27;27612;-78
2023/01/20 23:20:51;;;;;;;;;;;;;;;;;;8406159;27;28798;-78
2023/01/20 23:24:51;;;;;;;;;;;;;;;;;;8409589;27;29696;-79
2023/01/20 23:28:52;;;;;;;;;;;;;;;;;;8406855;27;27420;-78
2023/01/20 23:32:52;;;;;;;;;;;;;;;;;;8411180;27;28648;-77
2023/01/20 23:36:52;;;;;;;;;;;;;;;;;;8404594;27;28815;-78
2023/01/20 23:40:52;;;;;;;;;;;;;;;;;;8404860;27;28139;-78
2023/01/20 23:44:53;;;;;;;;;;;;;;;;;;8417241;27;28477;-79
2023/01/20 23:48:53;;;;;;;;;;;;;;;;;;8408862;27;30333;-78
2023/01/20 23:52:53;;;;;;;;;;;;;;;;;;8412530;27;28705;-79
2023/01/20 23:56:53;;;;;;;;;;;;;;;;;;8403459;27;28679;-79
